Time;durP1;ratioP1;P1;durP2;ratioP2;P2;SDS_P1;SDS_P2;PMS_P1;PMS_P2;Temp;Humidity;BMP_temperature;BMP_pressure;BME280_temperature;BME280_humidity;BME280_pressure;Samples;Min_cycle;Max_cycle;Signal;HPM_P1;HPM_P2
2022/05/20 00:02:15;;;;;;;11.10;4.30;;;14.40;99.90;;;;;;5070552;28;20074;-67
2022/05/20 00:04:40;;;;;;;9.77;4.70;;;14.40;99.90;;;;;;5071033;28;20595;-67
2022/05/20 00:07:06;;;;;;;6.97;4.50;;;14.40;99.90;;;;;;5069241;28;20546;-67
2022/05/20 00:09:32;;;;;;;9.82;4.78;;;14.40;99.90;;;;;;5068801;28;20063;-67
2022/05/20 00:11:58;;;;;;;7.90;4.80;;;14.50;99.90;;;;;;5069225;28;20045;-67
2022/05/20 00:14:24;;;;;;;6.50;4.55;;;15.10;99.90;;;;;;5069619;28;20044;-67
2022/05/20 00:16:50;;;;;;;7.32;5.05;;;14.60;99.90;;;;;;5069874;28;20090;-68
2022/05/20 00:19:15;;;;;;;8.30;5.10;;;14.50;99.90;;;;;;5069332;28;20045;-67
2022/05/20 00:21:41;;;;;;;10.48;5.60;;;14.60;99.90;;;;;;5069282;28;20040;-67
2022/05/20 00:24:07;;;;;;;10.02;5.35;;;14.60;99.90;;;;;;5069450;28;20082;-67
2022/05/20 00:26:33;;;;;;;9.27;5.60;;;14.50;99.90;;;;;;5068917;28;20041;-67
2022/05/20 00:28:58;;;;;;;8.48;5.28;;;14.50;99.90;;;;;;5070509;28;20546;-67
2022/05/20 00:31:25;;;;;;;8.52;5.57;;;14.40;99.90;;;;;;5053234;28;20045;-67
2022/05/20 00:33:51;;;;;;;7.22;5.28;;;14.40;99.90;;;;;;5057642;28;20117;-67
2022/05/20 00:36:17;;;;;;;9.70;6.18;;;14.40;99.90;;;;;;5069772;28;20044;-67
2022/05/20 00:38:43;;;;;;;8.85;6.13;;;14.40;99.90;;;;;;5069274;28;20086;-67
2022/05/20 00:41:09;;;;;;;11.10;6.85;;;14.40;99.90;;;;;;5068820;28;20045;-67
2022/05/20 00:43:39;;;;;;;10.88;6.55;;;14.30;99.90;;;;;;5069128;28;20052;-66
2022/05/20 00:46:09;;;;;;;12.40;7.00;;;14.30;99.90;;;;;;5069070;28;20047;-67
2022/05/20 00:48:35;;;;;;;10.95;6.55;;;14.30;99.90;;;;;;5069062;28;20036;-67
2022/05/20 00:51:07;;;;;;;11.60;7.63;;;14.20;99.90;;;;;;5062325;28;20055;-66
2022/05/20 00:53:38;;;;;;;13.35;8.68;;;14.20;99.90;;;;;;5070004;28;20045;-67
2022/05/20 00:56:06;;;;;;;13.52;8.30;;;14.10;99.90;;;;;;5068950;28;20376;-67
2022/05/20 00:58:32;;;;;;;10.27;8.02;;;14.10;99.90;;;;;;5067583;28;20258;-66
2022/05/20 01:01:01;;;;;;;13.85;8.18;;;13.90;99.90;;;;;;5069714;28;20390;-67
2022/05/20 01:03:31;;;;;;;13.77;8.68;;;13.80;99.90;;;;;;5067574;28;20387;-66
2022/05/20 01:05:58;;;;;;;13.40;8.77;;;13.80;99.90;;;;;;5068923;28;20059;-67
2022/05/20 01:08:27;;;;;;;10.63;8.93;;;13.70;99.90;;;;;;5068348;28;20401;-66
2022/05/20 01:10:53;;;;;;;13.18;9.30;;;13.70;99.90;;;;;;5069150;28;20366;-67
2022/05/20 01:13:20;;;;;;;14.50;9.07;;;13.60;99.90;;;;;;5066926;28;20098;-67
2022/05/20 01:15:46;;;;;;;11.80;9.18;;;14.30;99.90;;;;;;5069593;28;20125;-67
2022/05/20 01:18:14;;;;;;;14.00;9.48;;;13.70;99.90;;;;;;5066182;28;20497;-67
2022/05/20 01:20:43;;;;;;;13.50;9.65;;;13.60;99.90;;;;;;5059743;28;20390;-66
2022/05/20 01:23:15;;;;;;;13.27;9.48;;;14.40;99.90;;;;;;5047233;28;20489;-67
2022/05/20 01:25:44;;;;;;;13.55;9.70;;;13.90;99.90;;;;;;5062655;28;20497;-67
2022/05/20 01:28:10;;;;;;;12.98;10.13;;;13.60;99.90;;;;;;5068655;28;20045;-66
2022/05/20 01:30:39;;;;;;;17.63;9.98;;;13.60;99.90;;;;;;5068908;28;20048;-66
2022/05/20 01:33:06;;;;;;;15.70;10.57;;;13.60;99.90;;;;;;5067025;28;20028;-67
2022/05/20 01:35:44;;;;;;;15.23;10.55;;;13.60;99.90;;;;;;5069136;28;20036;-67
2022/05/20 01:38:11;;;;;;;17.27;10.85;;;13.70;99.90;;;;;;5069196;28;20036;-67
2022/05/20 01:40:53;;;;;;;15.40;10.68;;;13.70;99.90;;;;;;5066759;28;20036;-67
2022/05/20 01:43:51;;;;;;;17.20;10.60;;;13.60;99.90;;;;;;5067836;28;20378;-67
2022/05/20 01:46:32;;;;;;;17.25;10.32;;;13.70;99.90;;;;;;5067486;28;20044;-68
2022/05/20 01:49:27;;;;;;;15.60;9.85;;;13.60;99.90;;;;;;5069229;28;20059;-68
2022/05/20 01:52:05;;;;;;;15.73;9.80;;;13.70;99.90;;;;;;5066674;28;20109;-67
2022/05/20 01:54:54;;;;;;;16.30;10.32;;;13.60;99.90;;;;;;5067506;28;20118;-67
2022/05/20 01:57:29;;;;;;;11.65;9.18;;;13.70;99.90;;;;;;5083731;28;20049;-67
2022/05/20 02:00:02;;;;;;;13.63;10.40;;;13.60;99.90;;;;;;5069869;28;20424;-67
2022/05/20 02:02:42;;;;;;;16.42;10.35;;;13.60;99.90;;;;;;5064587;28;20045;-67
2022/05/20 02:05:50;;;;;;;16.95;10.30;;;13.60;99.90;;;;;;5068317;28;20064;-68
2022/05/20 02:08:36;;;;;;;14.23;10.43;;;13.50;99.90;;;;;;5067522;28;20058;-67
2022/05/20 02:11:35;;;;;;;17.45;11.65;;;13.50;99.90;;;;;;5051511;28;20106;-67
2022/05/20 02:14:08;;;;;;;20.63;11.15;;;13.40;99.90;;;;;;5052573;28;20051;-67
2022/05/20 02:16:37;;;;;;;15.48;11.50;;;12.70;99.90;;;;;;5054087;28;20052;-67
2022/05/20 02:19:37;;;;;;;18.65;11.60;;;13.30;99.90;;;;;;5068638;28;20056;-67
2022/05/20 02:22:09;;;;;;;19.35;12.10;;;13.20;99.90;;;;;;5067493;28;20045;-68
2022/05/20 02:24:37;;;;;;;15.50;11.07;;;13.20;99.90;;;;;;5067761;28;20135;-67
2022/05/20 02:27:07;;;;;;;16.30;11.88;;;13.20;99.90;;;;;;5067745;28;20531;-68
2022/05/20 02:30:09;;;;;;;17.58;11.05;;;13.30;99.90;;;;;;5067698;28;20044;-67
2022/05/20 02:32:47;;;;;;;20.15;11.38;;;13.30;99.90;;;;;;5063451;28;20473;-67
2022/05/20 02:35:12;;;;;;;18.55;11.82;;;13.30;99.90;;;;;;5066332;28;20361;-67
2022/05/20 02:37:39;;;;;;;16.50;11.07;;;13.70;99.90;;;;;;5067437;28;20128;-67
2022/05/20 02:40:12;;;;;;;16.25;11.18;;;13.30;99.90;;;;;;5067874;28;20128;-67
2022/05/20 02:42:38;;;;;;;16.55;12.13;;;13.30;99.90;;;;;;5068326;28;20051;-67
2022/05/20 02:45:04;;;;;;;22.80;12.35;;;13.20;99.90;;;;;;5067206;28;20393;-67
2022/05/20 02:47:32;;;;;;;17.75;11.98;;;13.10;99.90;;;;;;5065796;28;20408;-67
2022/05/20 02:50:03;;;;;;;15.55;11.40;;;13.30;99.90;;;;;;5068076;28;20135;-67
2022/05/20 02:52:28;;;;;;;15.98;11.68;;;13.00;99.90;;;;;;5067017;28;20465;-67
2022/05/20 02:54:54;;;;;;;17.00;12.05;;;13.00;99.90;;;;;;5067485;28;20123;-68
2022/05/20 02:57:20;;;;;;;16.88;12.23;;;13.00;99.90;;;;;;5067157;28;20040;-67
2022/05/20 03:05:33;;;;;;;18.58;12.57;;;12.90;99.90;;;;;;5040777;28;20057;-67
2022/05/20 03:07:59;;;;;;;17.55;11.95;;;12.90;99.90;;;;;;5049517;28;20101;-67
2022/05/20 03:10:25;;;;;;;17.25;12.52;;;12.80;99.90;;;;;;5067350;28;20064;-67
2022/05/20 03:12:51;;;;;;;17.15;12.30;;;12.80;99.90;;;;;;5067293;28;20484;-67
2022/05/20 03:15:17;;;;;;;17.70;12.07;;;12.80;99.90;;;;;;5068347;28;20075;-67
2022/05/20 03:17:43;;;;;;;20.50;13.23;;;12.80;99.90;;;;;;5066345;28;20469;-67
2022/05/20 03:20:09;;;;;;;18.58;12.30;;;12.70;99.90;;;;;;5066458;28;20037;-67
2022/05/20 03:22:36;;;;;;;22.42;13.18;;;12.70;99.90;;;;;;5067443;28;20118;-67
2022/05/20 03:25:04;;;;;;;19.52;13.32;;;12.70;99.90;;;;;;5067403;28;20052;-67
2022/05/20 03:27:30;;;;;;;19.23;13.45;;;12.70;99.90;;;;;;5066798;28;20432;-67
2022/05/20 03:29:57;;;;;;;19.60;12.77;;;12.70;99.90;;;;;;5067973;28;20102;-67
2022/05/20 03:32:23;;;;;;;21.52;13.73;;;12.60;99.90;;;;;;5065350;28;20064;-67
2022/05/20 03:34:48;;;;;;;18.17;13.23;;;12.60;99.90;;;;;;5067064;28;20480;-67
2022/05/20 03:37:14;;;;;;;19.40;14.30;;;12.60;99.90;;;;;;5066472;28;20397;-68
2022/05/20 03:39:40;;;;;;;24.42;14.07;;;12.50;99.90;;;;;;5066485;28;20048;-67
2022/05/20 03:42:06;;;;;;;21.17;14.52;;;12.60;99.90;;;;;;5068877;28;20501;-67
2022/05/20 03:44:32;;;;;;;21.48;14.32;;;12.60;99.90;;;;;;5070451;28;20040;-67
2022/05/20 03:46:58;;;;;;;20.92;14.48;;;13.10;99.90;;;;;;5068299;28;20044;-67
2022/05/20 03:49:27;;;;;;;19.58;14.68;;;12.50;99.90;;;;;;5069998;28;20056;-68
2022/05/20 03:51:54;;;;;;;19.00;14.95;;;12.60;99.90;;;;;;5070704;28;20055;-67
2022/05/20 03:54:22;;;;;;;21.40;14.07;;;12.50;99.90;;;;;;5068223;28;20036;-68
2022/05/20 03:56:48;;;;;;;18.05;14.40;;;12.40;99.90;;;;;;5072072;28;20550;-67
2022/05/20 03:59:14;;;;;;;20.17;14.18;;;12.40;99.90;;;;;;5073254;28;20092;-67
2022/05/20 04:01:57;;;;;;;22.48;14.90;;;12.50;99.90;;;;;;5069234;28;20048;-67
2022/05/20 04:04:31;;;;;;;20.35;14.93;;;12.60;99.90;;;;;;5070502;28;20048;-67
2022/05/20 04:07:01;;;;;;;22.83;15.52;;;12.50;99.90;;;;;;5066298;28;20048;-67
2022/05/20 04:09:27;;;;;;;21.20;15.23;;;12.50;99.90;;;;;;5050725;28;20385;-67
2022/05/20 04:11:56;;;;;;;23.50;15.90;;;12.40;99.90;;;;;;5050826;28;20040;-68
2022/05/20 04:14:23;;;;;;;26.35;16.88;;;12.50;99.90;;;;;;5069922;28;20362;-67
2022/05/20 04:16:55;;;;;;;24.90;15.95;;;12.50;99.90;;;;;;5068468;28;20044;-68
2022/05/20 04:19:21;;;;;;;20.80;15.80;;;12.40;99.90;;;;;;5070477;28;20052;-67
2022/05/20 04:21:47;;;;;;;23.50;17.00;;;12.50;99.90;;;;;;5069820;28;20036;-67
2022/05/20 04:24:12;;;;;;;22.92;16.70;;;12.50;99.90;;;;;;5069375;28;20040;-67
2022/05/20 04:26:38;;;;;;;24.77;16.98;;;12.60;99.90;;;;;;5069870;28;20033;-67
2022/05/20 04:29:04;;;;;;;26.88;17.38;;;12.70;99.90;;;;;;5068682;28;20041;-67
2022/05/20 04:31:29;;;;;;;26.65;16.77;;;12.70;99.90;;;;;;5067476;28;20045;-67
2022/05/20 04:33:55;;;;;;;21.67;16.08;;;12.60;99.90;;;;;;5069747;28;20044;-67
2022/05/20 04:36:20;;;;;;;21.23;16.35;;;12.60;99.90;;;;;;5070220;28;20098;-67
2022/05/20 04:38:46;;;;;;;22.13;16.27;;;12.60;99.90;;;;;;5069757;28;20148;-67
2022/05/20 04:46:58;;;;;;;24.52;16.63;;;12.60;99.90;;;;;;5054412;28;20110;-68
2022/05/20 04:49:29;;;;;;;23.15;15.90;;;13.00;99.90;;;;;;5068505;28;20567;-67
2022/05/20 04:51:55;;;;;;;22.23;15.93;;;12.60;99.90;;;;;;5067374;28;20040;-67
2022/05/20 04:57:07;;;;;;;21.50;15.30;;;12.60;99.90;;;;;;5069116;28;20183;-68
2022/05/20 04:59:36;;;;;;;22.83;16.27;;;12.60;99.90;;;;;;5058450;28;20463;-68
2022/05/20 05:02:02;;;;;;;22.52;16.45;;;12.60;99.90;;;;;;5064447;28;20447;-67
2022/05/20 05:04:28;;;;;;;25.38;16.90;;;12.60;99.90;;;;;;5068116;28;20097;-67
2022/05/20 05:06:53;;;;;;;23.08;15.85;;;12.60;99.90;;;;;;5069076;28;20040;-67
2022/05/20 05:09:19;;;;;;;21.52;16.70;;;12.70;99.90;;;;;;5069892;28;20045;-67
2022/05/20 05:11:45;;;;;;;18.35;15.50;;;12.60;99.90;;;;;;5068654;28;20040;-67
2022/05/20 05:14:14;;;;;;;21.20;16.73;;;12.70;99.90;;;;;;5071030;28;20044;-67
2022/05/20 05:16:40;;;;;;;23.15;16.23;;;12.70;99.90;;;;;;5068336;28;20040;-67
2022/05/20 05:19:06;;;;;;;24.48;16.05;;;13.50;99.90;;;;;;5068523;28;20095;-67
2022/05/20 05:21:32;;;;;;;20.30;15.05;;;12.80;99.90;;;;;;5068518;28;20047;-66
2022/05/20 05:24:01;;;;;;;21.10;15.43;;;12.90;99.90;;;;;;5067902;28;20045;-67
2022/05/20 05:26:29;;;;;;;20.35;15.65;;;12.90;99.90;;;;;;5067920;28;20477;-67
2022/05/20 05:28:55;;;;;;;22.33;15.68;;;13.10;99.90;;;;;;5068558;28;20045;-67
2022/05/20 05:31:21;;;;;;;21.35;15.75;;;12.90;99.90;;;;;;5066918;28;20519;-67
2022/05/20 05:33:47;;;;;;;21.00;15.43;;;12.90;99.90;;;;;;5068488;28;20072;-67
2022/05/20 05:36:12;;;;;;;20.05;15.30;;;13.00;99.90;;;;;;5068544;28;20052;-66
2022/05/20 05:38:38;;;;;;;20.90;15.40;;;13.00;99.90;;;;;;5069011;28;20109;-67
2022/05/20 05:41:04;;;;;;;22.05;15.35;;;13.10;99.90;;;;;;5067859;28;20150;-67
2022/05/20 05:43:30;;;;;;;22.30;15.73;;;13.10;99.90;;;;;;5068737;28;20044;-66
2022/05/20 05:45:55;;;;;;;21.65;15.50;;;13.20;99.90;;;;;;5068888;28;20040;-66
2022/05/20 05:48:21;;;;;;;20.90;13.90;;;13.20;99.90;;;;;;5063914;28;20032;-66
2022/05/20 05:50:47;;;;;;;21.58;14.45;;;13.30;99.90;;;;;;5065699;28;20043;-66
2022/05/20 05:53:25;;;;;;;24.20;14.93;;;13.30;99.90;;;;;;5062639;28;20450;-67
2022/05/20 05:55:56;;;;;;;22.23;13.90;;;13.40;99.90;;;;;;5034155;28;20055;-67
2022/05/20 05:58:21;;;;;;;19.27;13.65;;;13.40;99.90;;;;;;5067973;28;20053;-67
2022/05/20 06:00:47;;;;;;;19.70;14.88;;;13.50;99.90;;;;;;5070589;28;20374;-67
2022/05/20 06:03:16;;;;;;;19.13;13.90;;;13.50;99.90;;;;;;5068885;28;20045;-67
2022/05/20 06:05:42;;;;;;;17.73;13.20;;;13.50;99.90;;;;;;5066077;28;20045;-67
2022/05/20 06:08:08;;;;;;;18.65;12.88;;;13.60;99.90;;;;;;5066725;28;20045;-66
2022/05/20 06:10:34;;;;;;;20.80;12.98;;;13.70;99.90;;;;;;5069455;28;20124;-66
2022/05/20 06:12:59;;;;;;;16.65;10.15;;;13.80;99.90;;;;;;5070058;28;20064;-66
2022/05/20 06:15:26;;;;;;;14.23;9.90;;;14.00;99.90;;;;;;5064860;28;20072;-66
2022/05/20 06:17:52;;;;;;;16.83;11.98;;;14.20;99.90;;;;;;5064678;28;20401;-67
2022/05/20 06:20:20;;;;;;;16.35;11.73;;;14.30;99.90;;;;;;5047488;28;20110;-69
2022/05/20 06:22:45;;;;;;;14.25;9.70;;;14.50;99.90;;;;;;5047641;28;20500;-67
2022/05/20 06:25:12;;;;;;;13.48;7.43;;;14.60;99.90;;;;;;5049006;28;20044;-67
2022/05/20 06:27:39;;;;;;;14.13;6.72;;;14.70;99.90;;;;;;5047336;28;20432;-67
2022/05/20 06:30:08;;;;;;;12.10;7.28;;;14.80;99.90;;;;;;5048768;28;20182;-67
2022/05/20 06:32:34;;;;;;;12.05;8.00;;;15.00;99.90;;;;;;5046087;28;20037;-66
2022/05/20 06:40:46;;;;;;;12.77;7.60;;;15.50;99.90;;;;;;5049165;28;20084;-67
2022/05/20 06:43:14;;;;;;;10.90;6.90;;;16.00;99.90;;;;;;5053401;28;20420;-68
2022/05/20 06:45:40;;;;;;;12.88;6.80;;;16.00;99.90;;;;;;5068276;28;20059;-67
2022/05/20 06:48:06;;;;;;;11.68;6.95;;;16.90;99.90;;;;;;5066024;28;20048;-67
2022/05/20 06:50:31;;;;;;;13.48;6.70;;;16.50;99.90;;;;;;5065418;28;20449;-66
2022/05/20 06:52:57;;;;;;;11.45;7.18;;;16.10;99.90;;;;;;5082546;28;20045;-67
2022/05/20 06:55:23;;;;;;;12.45;6.97;;;16.60;99.90;;;;;;5066864;28;20084;-67
2022/05/20 06:57:51;;;;;;;15.38;7.63;;;16.00;99.90;;;;;;5065312;28;20064;-67
2022/05/20 07:00:17;;;;;;;11.45;7.57;;;15.90;99.90;;;;;;5052244;28;20049;-66
2022/05/20 07:02:44;;;;;;;12.18;7.50;;;15.90;99.90;;;;;;5048399;28;20390;-66
2022/05/20 07:05:10;;;;;;;11.30;7.07;;;15.90;99.90;;;;;;5049217;28;20056;-66
2022/05/20 07:07:36;;;;;;;13.90;6.70;;;16.00;99.90;;;;;;5057389;28;20047;-66
2022/05/20 07:10:03;;;;;;;10.02;6.25;;;16.00;99.90;;;;;;5067741;28;20995;-66
2022/05/20 07:12:28;;;;;;;11.02;5.90;;;16.00;99.90;;;;;;5065856;28;20048;-66
2022/05/20 07:14:54;;;;;;;10.18;5.95;;;16.00;99.90;;;;;;5067911;28;20032;-67
2022/05/20 07:17:20;;;;;;;10.90;6.05;;;16.10;99.90;;;;;;5066578;28;20174;-67
2022/05/20 07:19:46;;;;;;;11.68;5.82;;;16.30;99.90;;;;;;5052192;28;20127;-67
2022/05/20 07:22:13;;;;;;;11.30;6.20;;;16.30;99.90;;;;;;5049633;28;20049;-67
2022/05/20 07:24:38;;;;;;;12.57;6.82;;;16.70;99.90;;;;;;5049138;28;20084;-66
2022/05/20 07:27:05;;;;;;;10.93;5.63;;;17.10;99.90;;;;;;5066093;28;20122;-66
2022/05/20 07:29:30;;;;;;;12.05;5.85;;;16.60;99.90;;;;;;5070910;28;20067;-67
2022/05/20 07:31:56;;;;;;;9.40;5.10;;;16.60;99.90;;;;;;5068991;28;20045;-66
2022/05/20 07:34:22;;;;;;;11.13;5.10;;;16.60;99.90;;;;;;5052167;28;20080;-67
2022/05/20 07:36:47;;;;;;;9.05;5.15;;;16.60;99.90;;;;;;5069223;28;20052;-66
2022/05/20 07:39:13;;;;;;;9.85;5.05;;;16.70;99.90;;;;;;5070026;28;20560;-65
2022/05/20 07:41:39;;;;;;;9.80;5.00;;;16.70;99.90;;;;;;5070837;28;20063;-65
2022/05/20 07:44:04;;;;;;;9.82;5.50;;;16.80;99.90;;;;;;5070130;28;20051;-66
2022/05/20 07:46:31;;;;;;;12.00;5.25;;;16.80;99.90;;;;;;5066235;28;20106;-65
2022/05/20 07:48:56;;;;;;;13.35;5.40;;;17.60;99.90;;;;;;5070585;28;20470;-65
2022/05/20 07:51:24;;;;;;;9.73;5.28;;;17.00;99.90;;;;;;5069430;28;20084;-65
2022/05/20 07:53:57;;;;;;;11.40;4.93;;;16.70;99.90;;;;;;5069825;28;20036;-67
2022/05/20 07:56:32;;;;;;;9.50;4.65;;;16.70;99.90;;;;;;5069289;28;20040;-66
2022/05/20 07:59:09;;;;;;;10.30;4.05;;;16.80;99.90;;;;;;5065803;28;20065;-70
2022/05/20 08:01:38;;;;;;;11.05;4.38;;;17.00;99.90;;;;;;5067899;28;20051;-71
2022/05/20 08:07:13;;;;;;;10.90;4.80;;;17.40;99.90;;;;;;5069120;28;20045;-68
2022/05/20 08:09:39;;;;;;;9.63;4.30;;;17.80;99.90;;;;;;5069953;28;20045;-67
2022/05/20 08:12:05;;;;;;;10.95;3.78;;;17.80;99.90;;;;;;5065980;28;20436;-67
2022/05/20 08:14:31;;;;;;;9.02;3.20;;;18.00;99.90;;;;;;5069331;28;20113;-67
2022/05/20 08:16:58;;;;;;;7.90;3.05;;;18.20;99.90;;;;;;5067099;28;20041;-67
2022/05/20 08:19:24;;;;;;;9.10;3.28;;;18.40;99.90;;;;;;5068299;28;20056;-66
2022/05/20 08:21:49;;;;;;;6.60;3.28;;;19.20;99.90;;;;;;5072117;28;20037;-66
2022/05/20 08:24:15;;;;;;;9.13;2.92;;;18.40;99.90;;;;;;5051370;28;20059;-67
2022/05/20 08:26:41;;;;;;;6.55;3.10;;;18.30;99.90;;;;;;5069327;28;20044;-67
2022/05/20 08:29:06;;;;;;;11.63;3.10;;;18.40;99.90;;;;;;5068536;28;20505;-66
2022/05/20 08:31:33;;;;;;;9.93;3.03;;;18.50;99.90;;;;;;5066824;28;20725;-66
2022/05/20 08:33:59;;;;;;;8.95;3.20;;;18.70;99.90;;;;;;5069560;28;20048;-67
2022/05/20 08:36:26;;;;;;;6.07;3.28;;;19.10;99.90;;;;;;5069594;28;20044;-66
2022/05/20 08:38:51;;;;;;;6.50;3.20;;;18.90;99.90;;;;;;5052621;28;20045;-68
2022/05/20 08:41:28;;;;;;;7.18;3.65;;;18.90;99.90;;;;;;5047853;28;20056;-68
2022/05/20 08:43:53;;;;;;;7.53;3.17;;;19.50;99.90;;;;;;5050082;28;20049;-68
2022/05/20 08:46:22;;;;;;;10.48;3.13;;;18.90;99.90;;;;;;5048257;28;20098;-67
2022/05/20 08:48:54;;;;;;;8.07;3.28;;;18.90;99.90;;;;;;5049165;28;20413;-68
2022/05/20 08:51:21;;;;;;;7.03;2.95;;;18.90;99.90;;;;;;5064434;28;20052;-68
2022/05/20 08:53:48;;;;;;;8.35;3.60;;;18.90;99.90;;;;;;5049980;28;20207;-67
2022/05/20 08:56:19;;;;;;;5.75;3.00;;;19.00;99.90;;;;;;5048723;28;20072;-67
2022/05/20 08:59:04;;;;;;;5.97;2.88;;;19.60;99.90;;;;;;5049284;28;20075;-67
2022/05/20 09:01:33;;;;;;;6.30;3.08;;;19.20;99.90;;;;;;5047072;28;20068;-67
2022/05/20 09:03:59;;;;;;;8.30;3.15;;;19.40;99.90;;;;;;5048918;28;20047;-67
2022/05/20 09:06:25;;;;;;;6.38;2.63;;;19.60;99.90;;;;;;5048335;28;20454;-67
2022/05/20 09:09:05;;;;;;;7.00;2.50;;;19.80;99.90;;;;;;5049536;28;20041;-67
2022/05/20 09:11:30;;;;;;;7.18;2.90;;;19.90;99.90;;;;;;5048873;28;20041;-67
2022/05/20 09:17:18;;;;;;;6.97;3.58;;;20.20;99.90;;;;;;5047371;28;20060;-67
2022/05/20 09:20:04;;;;;;;7.60;3.15;;;20.30;99.90;;;;;;5050107;28;20226;-67
2022/05/20 09:22:33;;;;;;;6.65;3.38;;;20.30;99.90;;;;;;5067591;28;20052;-68
2022/05/20 09:24:59;;;;;;;7.82;3.20;;;20.50;99.90;;;;;;5069521;28;20405;-67
2022/05/20 09:27:32;;;;;;;7.00;3.17;;;20.50;99.90;;;;;;5068380;28;20191;-67
2022/05/20 09:30:05;;;;;;;6.07;3.40;;;20.60;99.90;;;;;;5067094;28;20040;-67
2022/05/20 09:32:39;;;;;;;9.27;3.40;;;20.70;99.90;;;;;;5067180;28;20055;-67
2022/05/20 09:35:14;;;;;;;7.15;3.72;;;20.80;99.90;;;;;;5069259;28;20049;-68
2022/05/20 09:37:39;;;;;;;6.72;3.30;;;21.00;99.90;;;;;;5068204;28;20048;-67
2022/05/20 09:40:17;;;;;;;6.95;3.42;;;21.00;99.90;;;;;;5066688;28;20044;-67
2022/05/20 09:43:00;;;;;;;7.25;3.10;;;21.00;99.90;;;;;;5068849;28;20059;-67
2022/05/20 09:45:27;;;;;;;7.47;2.65;;;21.20;99.90;;;;;;5066157;28;20051;-68
2022/05/20 09:47:57;;;;;;;5.57;2.30;;;21.30;99.90;;;;;;5067355;28;20052;-68
2022/05/20 09:50:34;;;;;;;6.03;2.47;;;21.30;99.90;;;;;;5070331;28;20474;-68
2022/05/20 09:53:26;;;;;;;8.82;2.60;;;21.30;99.90;;;;;;5066400;28;20040;-70
2022/05/20 09:56:18;;;;;;;6.55;2.65;;;21.30;99.90;;;;;;5068479;28;20041;-68
2022/05/20 09:59:10;;;;;;;5.70;2.40;;;21.40;99.90;;;;;;5066452;28;20436;-68
2022/05/20 10:01:37;;;;;;;4.70;2.20;;;21.40;99.90;;;;;;5066920;28;20096;-68
2022/05/20 10:04:10;;;;;;;7.75;2.20;;;21.40;99.90;;;;;;5066328;28;20056;-67
2022/05/20 10:06:48;;;;;;;7.18;2.50;;;21.40;99.90;;;;;;5067356;28;20408;-67
2022/05/20 10:09:38;;;;;;;8.80;2.70;;;21.30;99.90;;;;;;5067936;28;20091;-68
2022/05/20 10:12:31;;;;;;;6.80;2.50;;;21.10;99.90;;;;;;5066672;28;20059;-67
2022/05/20 10:15:27;;;;;;;5.88;2.42;;;21.10;99.90;;;;;;5068386;28;20441;-67
2022/05/20 10:18:06;;;;;;;9.27;2.75;;;20.90;99.90;;;;;;5066965;28;20546;-67
2022/05/20 10:21:12;;;;;;;7.65;2.88;;;20.80;99.90;;;;;;5065492;28;20082;-66
2022/05/20 10:23:49;;;;;;;;;;;20.60;99.90;;;;;;5045888;28;20084;-66
2022/05/20 10:26:33;;;;;;;6.20;2.53;;;20.60;99.90;;;;;;5063599;28;20283;-66
2022/05/20 10:34:58;;;;;;;5.55;3.30;;;21.10;99.90;;;;;;5068103;28;20405;-67
2022/05/20 10:37:58;;;;;;;8.30;3.70;;;21.50;99.90;;;;;;5069135;28;20451;-67
2022/05/20 10:40:53;;;;;;;7.43;3.05;;;21.50;99.90;;;;;;5067527;28;20121;-68
2022/05/20 10:43:21;;;;;;;7.88;3.78;;;21.60;99.90;;;;;;5063956;28;20132;-67
2022/05/20 10:48:51;;;;;;;6.18;2.97;;;21.50;99.90;;;;;;5067330;28;20048;-68
2022/05/20 10:51:41;;;;;;;9.77;3.70;;;21.40;99.90;;;;;;5066670;28;20048;-67
2022/05/20 10:54:22;;;;;;;8.13;3.40;;;21.50;99.90;;;;;;5066543;28;20040;-66
2022/05/20 10:57:14;;;;;;;6.25;2.80;;;21.50;99.90;;;;;;5067910;28;20040;-65
2022/05/20 10:59:39;;;;;;;9.43;3.53;;;21.80;99.90;;;;;;5070873;28;20044;-65
2022/05/20 11:02:33;;;;;;;5.40;2.90;;;22.10;99.90;;;;;;5062749;28;20062;-65
2022/05/20 11:05:09;;;;;;;7.53;3.30;;;22.40;99.90;;;;;;5048153;28;20044;-65
2022/05/20 11:08:11;;;;;;;5.10;3.00;;;22.70;99.90;;;;;;5046670;28;20163;-65
2022/05/20 11:11:11;;;;;;;6.60;3.20;;;23.10;99.90;;;;;;5044063;28;20053;-68
2022/05/20 11:13:58;;;;;;;8.60;3.50;;;23.30;99.90;;;;;;5044143;28;20045;-67
2022/05/20 11:16:38;;;;;;;9.80;3.70;;;23.20;99.90;;;;;;5052786;28;20465;-68
2022/05/20 11:19:44;;;;;;;8.65;3.67;;;22.90;99.90;;;;;;5063961;28;20071;-67
2022/05/20 11:22:40;;;;;;;7.53;3.50;;;22.80;99.90;;;;;;5061351;28;20048;-68
2022/05/20 11:25:28;;;;;;;7.43;3.85;;;22.90;99.90;;;;;;5063245;28;20049;-68
2022/05/20 11:28:15;;;;;;;7.10;3.60;;;23.30;99.90;;;;;;5063704;28;20037;-68
2022/05/20 11:31:19;;;;;;;7.32;3.30;;;24.00;99.90;;;;;;5063731;28;20731;-68
2022/05/20 11:33:54;;;;;;;6.20;2.95;;;24.30;99.00;;;;;;5062873;28;20102;-68
2022/05/20 11:36:42;;;;;;;7.22;3.35;;;24.50;99.00;;;;;;5060565;28;20163;-68
2022/05/20 11:39:38;;;;;;;7.38;2.92;;;25.20;97.30;;;;;;5044009;28;20041;-69
2022/05/20 11:42:24;;;;;;;;;;;25.50;96.30;;;;;;5062621;28;20052;-69
2022/05/20 11:45:09;;;;;;;5.82;2.40;;;25.90;95.30;;;;;;5064474;28;19921;-69
2022/05/20 11:48:05;;;;;;;4.32;2.28;;;25.90;93.90;;;;;;5063173;28;20101;-72
2022/05/20 11:50:34;;;;;;;;;;;25.90;94.10;;;;;;5064297;28;20378;-72
2022/05/20 11:53:42;;;;;;;6.68;2.90;;;26.00;93.80;;;;;;5065726;28;19982;-72
2022/05/20 11:56:29;;;;;;;5.13;2.90;;;25.90;93.20;;;;;;5040897;28;20049;-72
2022/05/20 11:59:07;;;;;;;7.18;4.38;;;25.80;93.40;;;;;;5058563;28;20056;-72
2022/05/20 12:01:35;;;;;;;7.72;3.40;;;25.70;93.40;;;;;;5044536;28;20338;-72
2022/05/20 12:04:07;;;;;;;5.72;3.40;;;25.50;94.00;;;;;;5062501;28;20040;-72
2022/05/20 12:06:45;;;;;;;6.78;3.13;;;25.40;93.70;;;;;;5066546;28;20406;-71
2022/05/20 12:09:33;;;;;;;7.88;3.25;;;25.30;93.90;;;;;;5071017;28;20115;-71
2022/05/20 12:12:18;;;;;;;5.35;3.40;;;25.30;93.00;;;;;;5066940;28;20093;-71
2022/05/20 12:15:08;;;;;;;4.70;3.13;;;25.00;93.20;;;;;;5067049;28;20130;-71
2022/05/20 12:17:46;;;;;;;5.90;3.65;;;24.70;93.80;;;;;;5065640;28;20041;-72
2022/05/20 12:26:24;;;;;;;7.05;3.47;;;24.00;93.00;;;;;;5067161;28;20480;-71
2022/05/20 12:28:50;;;;;;;6.30;4.03;;;23.60;93.20;;;;;;5069229;28;20052;-71
2022/05/20 12:31:32;;;;;;;9.63;4.63;;;23.30;93.70;;;;;;5067110;28;20064;-71
2022/05/20 12:34:05;;;;;;;7.15;4.03;;;23.10;94.10;;;;;;5067851;28;20104;-71
2022/05/20 12:36:30;;;;;;;5.50;3.67;;;22.90;94.80;;;;;;5066723;28;20139;-72
2022/05/20 12:39:12;;;;;;;11.30;4.97;;;23.00;95.30;;;;;;5067635;28;20040;-72
2022/05/20 12:41:57;;;;;;;11.30;5.10;;;23.10;95.20;;;;;;5067980;28;20407;-71
2022/05/20 12:44:22;;;;;;;8.07;4.80;;;23.10;95.60;;;;;;5065225;28;20063;-71
2022/05/20 12:47:12;;;;;;;8.60;5.30;;;23.80;95.90;;;;;;5062414;28;20040;-71
2022/05/20 12:49:38;;;;;;;9.18;5.63;;;23.50;95.60;;;;;;5066057;28;20044;-72
2022/05/20 12:52:17;;;;;;;7.95;5.47;;;23.40;96.00;;;;;;5070261;28;20044;-72
2022/05/20 12:54:46;;;;;;;7.97;5.13;;;23.20;96.00;;;;;;5067006;28;20043;-72
2022/05/20 12:57:21;;;;;;;7.80;5.15;;;23.10;96.30;;;;;;5069042;28;20311;-73
2022/05/20 12:59:58;;;;;;;11.30;6.50;;;23.30;96.60;;;;;;5064805;28;20064;-72
2022/05/20 13:02:28;;;;;;;7.50;5.65;;;23.30;96.20;;;;;;5063682;28;20056;-73
2022/05/20 13:05:15;;;;;;;9.05;4.95;;;23.20;96.30;;;;;;5068871;28;20044;-72
2022/05/20 13:07:42;;;;;;;8.70;5.68;;;23.20;96.60;;;;;;5066373;28;20044;-72
2022/05/20 13:10:25;;;;;;;10.07;5.28;;;23.10;96.80;;;;;;5072303;28;20374;-72
2022/05/20 13:13:01;;;;;;;9.27;5.15;;;22.90;96.60;;;;;;5064508;28;20041;-72
2022/05/20 13:15:26;;;;;;;8.27;5.10;;;22.60;95.90;;;;;;5066880;28;20039;-73
2022/05/20 13:18:00;;;;;;;10.27;4.75;;;22.30;95.90;;;;;;5066256;28;20044;-72
2022/05/20 13:20:28;;;;;;;9.48;4.30;;;22.10;96.10;;;;;;5065653;28;20401;-71
2022/05/20 13:22:59;;;;;;;7.93;3.70;;;21.80;96.40;;;;;;5067194;28;20127;-72
2022/05/20 13:25:25;;;;;;;8.95;3.75;;;21.50;96.30;;;;;;5068995;28;20426;-72
2022/05/20 13:27:50;;;;;;;8.38;3.70;;;21.40;96.20;;;;;;5052305;28;20135;-72
2022/05/20 13:30:22;;;;;;;5.65;4.07;;;21.40;96.20;;;;;;5055250;28;20110;-65
2022/05/20 13:32:47;;;;;;;5.40;3.67;;;21.10;96.10;;;;;;5063837;28;20055;-65
2022/05/20 13:35:13;;;;;;;7.57;4.22;;;21.00;96.60;;;;;;5064453;28;20040;-65
2022/05/20 13:38:05;;;;;;;6.85;4.50;;;20.90;97.40;;;;;;5064981;28;20135;-65
2022/05/20 13:40:37;;;;;;;6.65;4.47;;;20.80;98.60;;;;;;5064684;28;20288;-65
2022/05/20 13:43:03;;;;;;;8.55;3.92;;;20.80;99.00;;;;;;5065339;28;20056;-64
2022/05/20 13:51:08;;;;;;;7.53;3.40;;;20.40;98.70;;;;;;5063645;28;20072;-64